createdAt,value
2023-05-22T00:01:16.743Z,87.11
2023-05-22T00:03:43.317Z,85.56
2023-05-22T00:06:09.828Z,85.08
2023-05-22T00:08:36.254Z,87.17
2023-05-22T00:11:02.878Z,85.96
2023-05-22T00:13:29.344Z,87.01
2023-05-22T00:15:55.846Z,87.93
2023-05-22T00:18:22.662Z,87.59
2023-05-22T00:20:49.182Z,86.89
2023-05-22T00:23:15.853Z,86.74
2023-05-22T00:25:42.400Z,86.57
2023-05-22T00:28:09.056Z,87.16
2023-05-22T00:30:36.631Z,87.78
2023-05-22T00:33:03.492Z,87.53
2023-05-22T00:35:30.004Z,86.95
2023-05-22T00:37:56.542Z,86.73
2023-05-22T00:40:23.038Z,86.66
2023-05-22T00:42:49.567Z,87.61
2023-05-22T00:45:16.462Z,88.29
2023-05-22T00:47:42.943Z,87.58
2023-05-22T00:50:10.172Z,88.09
2023-05-22T00:52:37.895Z,89.33
2023-05-22T00:55:04.578Z,88.13
2023-05-22T00:57:31.036Z,88.46
2023-05-22T00:59:57.482Z,87.13
2023-05-22T01:02:23.952Z,87.33
2023-05-22T01:04:50.591Z,88.43
2023-05-22T01:07:17.356Z,88.97
2023-05-22T01:09:43.943Z,88.26
2023-05-22T01:12:10.312Z,88.74
2023-05-22T01:14:40.564Z,87.74
2023-05-22T01:17:08.507Z,89.72
2023-05-22T01:19:49.998Z,88.39
2023-05-22T01:22:26.163Z,88.31
2023-05-22T01:24:58.596Z,88.98
2023-05-22T01:27:30.825Z,89.05
2023-05-22T01:29:57.202Z,89.95
2023-05-22T01:32:24.844Z,89.57
2023-05-22T01:34:55.317Z,89.04
2023-05-22T01:37:21.863Z,89.47
2023-05-22T01:39:48.333Z,89.60
2023-05-22T01:42:15.080Z,89.08
2023-05-22T01:44:41.525Z,89.20
2023-05-22T01:47:07.957Z,90.28
2023-05-22T01:49:34.737Z,90.31
2023-05-22T01:52:03.901Z,89.86
2023-05-22T01:54:42.652Z,90.67
2023-05-22T01:57:24.576Z,91.27
2023-05-22T01:59:55.170Z,91.18
2023-05-22T02:02:22.050Z,91.08
2023-05-22T02:04:52.493Z,91.14
2023-05-22T02:07:19.715Z,90.60
2023-05-22T02:09:46.193Z,90.17
2023-05-22T02:12:12.689Z,89.65
2023-05-22T02:14:39.224Z,90.55
2023-05-22T02:17:05.851Z,91.01
2023-05-22T02:19:34.127Z,90.47
2023-05-22T02:22:00.623Z,90.48
2023-05-22T02:24:27.153Z,90.68
2023-05-22T02:26:53.587Z,89.83
2023-05-22T02:29:20.006Z,88.91
2023-05-22T02:31:46.561Z,90.63
2023-05-22T02:34:13.152Z,89.81
2023-05-22T02:36:40.480Z,90.60
2023-05-22T02:39:06.914Z,91.45
2023-05-22T02:41:33.482Z,90.21
2023-05-22T02:43:59.993Z,89.90
2023-05-22T02:46:26.594Z,91.05
2023-05-22T02:48:53.117Z,89.52
2023-05-22T02:51:19.622Z,88.58
2023-05-22T02:53:46.045Z,90.38
2023-05-22T02:56:12.592Z,90.10
2023-05-22T02:58:39.283Z,90.08
2023-05-22T03:01:05.780Z,90.37
2023-05-22T03:03:32.904Z,91.07
2023-05-22T03:06:00.065Z,89.92
2023-05-22T03:08:26.670Z,90.51
2023-05-22T03:10:53.230Z,92.04
2023-05-22T03:13:19.741Z,91.21
2023-05-22T03:15:46.312Z,90.94
2023-05-22T03:18:12.869Z,91.18
2023-05-22T03:20:39.723Z,91.20
2023-05-22T03:23:06.496Z,91.44
2023-05-22T03:25:33.022Z,91.87
2023-05-22T03:27:59.490Z,91.12
2023-05-22T03:30:26.027Z,90.34
2023-05-22T03:32:52.502Z,90.01
2023-05-22T03:35:18.986Z,90.90
2023-05-22T03:37:45.869Z,90.36
2023-05-22T03:40:12.613Z,91.77
2023-05-22T03:42:39.115Z,91.06
2023-05-22T03:45:06.134Z,91.36
2023-05-22T03:47:32.646Z,91.05
2023-05-22T03:49:59.185Z,90.29
2023-05-22T03:52:25.720Z,92.00
2023-05-22T03:54:52.250Z,90.75
2023-05-22T03:57:18.706Z,91.85
2023-05-22T03:59:45.357Z,91.91
2023-05-22T04:02:12.156Z,91.41
2023-05-22T04:04:39.412Z,89.62
2023-05-22T04:07:06.014Z,90.48
2023-05-22T04:09:32.528Z,90.28
2023-05-22T04:11:59.098Z,90.87
2023-05-22T04:14:25.597Z,91.34
2023-05-22T04:16:52.072Z,91.62
2023-05-22T04:19:18.614Z,91.01
2023-05-22T04:21:45.148Z,92.47
2023-05-22T04:24:11.759Z,92.02
2023-05-22T04:26:39.388Z,92.35
2023-05-22T04:29:06.946Z,91.48
2023-05-22T04:31:33.597Z,93.16
2023-05-22T04:34:01.077Z,93.87
2023-05-22T04:36:28.275Z,93.65
2023-05-22T04:38:54.895Z,92.99
2023-05-22T04:41:22.620Z,92.78
2023-05-22T04:43:49.364Z,93.17
2023-05-22T04:46:16.003Z,92.92
2023-05-22T04:48:42.539Z,93.03
2023-05-22T04:51:09.082Z,91.88
2023-05-22T04:53:35.542Z,92.85
2023-05-22T04:56:02.191Z,93.15
2023-05-22T04:58:29.265Z,93.29
2023-05-22T05:00:55.819Z,92.45
2023-05-22T05:03:22.429Z,92.08
2023-05-22T05:05:48.997Z,92.26
2023-05-22T05:08:15.493Z,93.20
2023-05-22T05:10:42.012Z,93.77
2023-05-22T05:13:09.265Z,93.00
2023-05-22T05:15:35.760Z,92.85
2023-05-22T05:18:02.270Z,94.49
2023-05-22T05:20:28.721Z,93.70
2023-05-22T05:22:55.228Z,94.61
2023-05-22T05:25:21.783Z,94.48
2023-05-22T05:27:48.292Z,94.41
2023-05-22T05:30:14.901Z,95.34
2023-05-22T05:32:41.390Z,94.83
2023-05-22T05:35:08.088Z,94.38
2023-05-22T05:37:34.550Z,95.07
2023-05-22T05:40:01.123Z,94.88
2023-05-22T05:42:27.558Z,93.99
2023-05-22T05:44:54.061Z,93.83
2023-05-22T05:47:20.815Z,95.25
2023-05-22T05:49:47.456Z,95.35
2023-05-22T05:52:14.012Z,94.38
2023-05-22T05:54:40.757Z,93.97
2023-05-22T05:57:07.301Z,93.88
2023-05-22T05:59:33.709Z,92.60
2023-05-22T06:02:00.384Z,93.34
2023-05-22T06:04:26.896Z,91.96
2023-05-22T06:06:53.387Z,90.64
2023-05-22T06:09:20.013Z,91.13
2023-05-22T06:11:46.530Z,89.69
2023-05-22T06:14:13.013Z,90.46
2023-05-22T06:16:39.538Z,90.27
2023-05-22T06:19:06.060Z,91.41
2023-05-22T06:21:32.533Z,91.28
2023-05-22T06:23:59.083Z,90.68
2023-05-22T06:26:25.650Z,90.18
2023-05-22T06:28:52.253Z,88.54
2023-05-22T06:31:18.748Z,89.26
2023-05-22T06:33:45.426Z,85.04
2023-05-22T06:36:12.073Z,86.17
2023-05-22T06:38:38.730Z,81.60
2023-05-22T06:41:05.433Z,83.72
2023-05-22T06:43:31.886Z,84.88
2023-05-22T06:45:58.452Z,83.16
2023-05-22T06:48:25.010Z,84.37
2023-05-22T06:50:51.422Z,82.85
2023-05-22T06:53:17.989Z,82.97
2023-05-22T06:55:44.404Z,81.50
2023-05-22T06:58:10.948Z,76.76
2023-05-22T07:00:37.587Z,76.99
2023-05-22T07:03:04.365Z,75.09
2023-05-22T07:05:30.901Z,74.85
2023-05-22T07:07:57.382Z,72.01
2023-05-22T07:10:23.995Z,72.50
2023-05-22T07:12:50.455Z,66.82
2023-05-22T07:15:16.924Z,61.18
2023-05-22T07:17:43.474Z,63.49
2023-05-22T07:20:10.039Z,61.59
2023-05-22T07:22:36.588Z,60.96
2023-05-22T07:25:03.016Z,56.56
2023-05-22T07:27:29.542Z,54.67
2023-05-22T07:29:56.171Z,53.53
2023-05-22T07:32:22.788Z,53.30
2023-05-22T07:34:49.276Z,53.05
2023-05-22T07:37:16.335Z,50.55
2023-05-22T07:39:42.791Z,53.51
2023-05-22T07:42:09.259Z,52.50
2023-05-22T07:44:35.904Z,51.59
2023-05-22T07:47:02.405Z,48.83
2023-05-22T07:49:28.916Z,46.86
2023-05-22T07:51:55.522Z,45.88
2023-05-22T07:54:21.981Z,44.14
2023-05-22T07:56:48.394Z,45.73
2023-05-22T07:59:15.660Z,44.83
2023-05-22T08:01:42.282Z,46.18
2023-05-22T08:04:09.040Z,44.89
2023-05-22T08:06:35.896Z,45.81
2023-05-22T08:09:02.563Z,42.94
2023-05-22T08:11:29.148Z,43.36
2023-05-22T08:13:55.710Z,45.48
2023-05-22T08:16:22.331Z,42.39
2023-05-22T08:18:49.214Z,43.89
2023-05-22T08:21:15.861Z,42.03
2023-05-22T08:23:42.313Z,46.86
2023-05-22T08:26:08.767Z,41.76
2023-05-22T08:28:35.343Z,42.90
2023-05-22T08:31:01.865Z,44.62
2023-05-22T08:33:28.368Z,41.65
2023-05-22T08:35:54.915Z,41.57
2023-05-22T08:38:21.470Z,40.89
2023-05-22T08:40:48.244Z,41.26
2023-05-22T08:43:14.812Z,40.44
2023-05-22T08:45:41.245Z,41.71
2023-05-22T08:48:07.813Z,37.59
2023-05-22T08:50:34.616Z,38.16
2023-05-22T08:53:01.102Z,38.72
2023-05-22T08:55:27.663Z,39.05
2023-05-22T08:57:55.139Z,41.40
2023-05-22T09:00:21.822Z,41.69
2023-05-22T09:02:48.686Z,41.83
2023-05-22T09:05:15.302Z,41.74
2023-05-22T09:07:41.716Z,42.86
2023-05-22T09:10:08.344Z,40.98
2023-05-22T09:12:34.887Z,42.45
2023-05-22T09:15:08.023Z,41.59
2023-05-22T09:17:34.590Z,46.14
2023-05-22T09:20:01.226Z,40.48
2023-05-22T09:22:34.858Z,39.86
2023-05-22T09:25:01.381Z,37.99
2023-05-22T09:27:28.112Z,37.52
2023-05-22T09:29:56.017Z,38.26
2023-05-22T09:32:22.584Z,37.67
2023-05-22T09:34:49.362Z,37.35
2023-05-22T09:37:16.088Z,38.05
2023-05-22T09:39:46.467Z,39.48
2023-05-22T09:42:14.818Z,39.29
2023-05-22T09:44:41.487Z,38.57
2023-05-22T09:47:08.166Z,39.29
2023-05-22T09:49:36.086Z,39.00
2023-05-22T09:52:02.596Z,37.24
2023-05-22T09:54:29.117Z,40.65
2023-05-22T09:56:55.614Z,41.19
2023-05-22T09:59:23.811Z,40.30
2023-05-22T10:01:50.435Z,36.01
2023-05-22T10:04:16.970Z,36.21
2023-05-22T10:06:43.467Z,37.07
2023-05-22T10:09:10.558Z,36.37
2023-05-22T10:11:37.042Z,37.14
2023-05-22T10:14:03.489Z,38.93
2023-05-22T10:16:30.106Z,36.34
2023-05-22T10:18:56.852Z,37.27
2023-05-22T10:21:23.392Z,36.18
2023-05-22T10:23:50.152Z,36.04
2023-05-22T10:26:16.686Z,40.78
2023-05-22T10:28:45.341Z,42.69
2023-05-22T10:31:14.911Z,44.67
2023-05-22T10:33:41.926Z,41.83
2023-05-22T10:36:08.842Z,38.04
2023-05-22T10:38:38.496Z,37.88
2023-05-22T10:41:04.958Z,42.68
2023-05-22T10:43:31.376Z,37.69
2023-05-22T10:46:04.416Z,38.86
2023-05-22T10:48:39.982Z,38.32
2023-05-22T10:51:06.944Z,41.45
2023-05-22T10:53:33.470Z,41.25
2023-05-22T10:56:00.144Z,42.96
2023-05-22T10:58:30.326Z,39.07
2023-05-22T11:01:15.860Z,41.85
2023-05-22T11:03:55.370Z,43.48
2023-05-22T11:06:31.205Z,39.63
2023-05-22T11:08:57.715Z,38.76
2023-05-22T11:11:27.231Z,39.62
2023-05-22T11:13:54.122Z,42.91
2023-05-22T11:16:20.590Z,39.72
2023-05-22T11:18:47.350Z,43.62
2023-05-22T11:21:13.920Z,39.16
2023-05-22T11:23:40.457Z,39.40
2023-05-22T11:26:19.696Z,43.14
2023-05-22T11:28:49.481Z,39.59
2023-05-22T11:31:16.223Z,39.33
2023-05-22T11:33:42.885Z,41.31
2023-05-22T11:36:09.413Z,42.88
2023-05-22T11:38:35.919Z,40.38
2023-05-22T11:41:02.730Z,38.29
2023-05-22T11:43:29.646Z,39.37
2023-05-22T11:46:00.307Z,42.42
2023-05-22T11:48:26.909Z,39.18
2023-05-22T11:50:53.381Z,38.01
2023-05-22T11:53:19.794Z,37.44
2023-05-22T11:55:47.971Z,40.56
2023-05-22T11:58:14.455Z,42.91
2023-05-22T12:00:42.771Z,43.96
2023-05-22T12:03:09.420Z,43.45
2023-05-22T12:05:36.149Z,42.12
2023-05-22T12:08:02.666Z,40.14
2023-05-22T12:10:29.132Z,44.65
2023-05-22T12:12:55.635Z,44.05
2023-05-22T12:15:22.213Z,44.01
2023-05-22T12:17:48.825Z,40.95
2023-05-22T12:20:15.547Z,42.67
2023-05-22T12:22:42.562Z,40.94
2023-05-22T12:25:15.595Z,42.85
2023-05-22T12:27:43.104Z,45.10
2023-05-22T12:30:10.568Z,43.20
2023-05-22T12:32:37.196Z,42.65
2023-05-22T12:35:03.814Z,40.21
2023-05-22T12:37:30.290Z,41.00
2023-05-22T12:40:00.653Z,43.02
2023-05-22T12:42:27.358Z,42.29
2023-05-22T12:44:54.039Z,41.68
2023-05-22T12:47:20.813Z,41.33
2023-05-22T12:49:47.322Z,44.50
2023-05-22T12:52:13.749Z,44.30
2023-05-22T12:54:40.509Z,41.13
2023-05-22T12:57:06.989Z,42.79
2023-05-22T12:59:33.507Z,45.26
2023-05-22T13:02:00.369Z,43.45
2023-05-22T13:04:26.968Z,39.84
2023-05-22T13:06:53.512Z,42.60
2023-05-22T13:09:20.007Z,42.44
2023-05-22T13:11:46.932Z,44.55
2023-05-22T13:14:13.664Z,46.38
2023-05-22T13:16:40.402Z,41.58
2023-05-22T13:19:06.988Z,43.20
2023-05-22T13:21:33.526Z,41.60
2023-05-22T13:24:00.126Z,45.30
2023-05-22T13:26:26.622Z,45.33
2023-05-22T13:28:53.313Z,43.44
2023-05-22T13:31:19.923Z,41.09
2023-05-22T13:33:46.427Z,40.69
2023-05-22T13:36:13.035Z,40.72
2023-05-22T13:38:39.555Z,46.03
2023-05-22T13:41:05.986Z,43.25
2023-05-22T13:43:32.783Z,43.51
2023-05-22T13:45:59.266Z,44.69
2023-05-22T13:48:25.785Z,44.05
2023-05-22T13:50:52.217Z,43.96
2023-05-22T13:53:18.699Z,43.08
2023-05-22T13:55:45.168Z,43.06
2023-05-22T13:58:11.687Z,44.71
2023-05-22T14:00:38.264Z,45.46
2023-05-22T14:03:04.993Z,41.62
2023-05-22T14:05:31.744Z,43.03
2023-05-22T14:07:58.242Z,42.72
2023-05-22T14:10:24.700Z,44.04
2023-05-22T14:12:51.119Z,41.97
2023-05-22T14:15:17.946Z,41.16
2023-05-22T14:17:44.750Z,42.62
2023-05-22T14:20:11.343Z,44.40
2023-05-22T14:22:55.267Z,43.99
2023-05-22T14:25:22.113Z,50.80
2023-05-22T14:27:48.600Z,43.28
2023-05-22T14:30:15.025Z,42.22
2023-05-22T14:32:41.668Z,42.78
2023-05-22T14:35:08.426Z,44.38
2023-05-22T14:37:34.839Z,44.21
2023-05-22T14:40:01.421Z,45.15
2023-05-22T14:42:28.010Z,45.95
2023-05-22T14:44:54.512Z,44.92
2023-05-22T14:47:21.031Z,45.34
2023-05-22T14:49:47.541Z,45.71
2023-05-22T14:52:14.196Z,45.48
2023-05-22T14:54:40.662Z,44.95
2023-05-22T14:57:07.160Z,45.26
2023-05-22T14:59:33.599Z,44.35
2023-05-22T15:02:00.038Z,43.46
2023-05-22T15:04:26.909Z,44.46
2023-05-22T15:06:53.499Z,43.69
2023-05-22T15:09:19.972Z,45.82
2023-05-22T15:11:46.475Z,44.23
2023-05-22T15:14:12.909Z,44.57
2023-05-22T15:16:39.330Z,45.52
2023-05-22T15:19:06.096Z,45.61
2023-05-22T15:21:32.650Z,46.35
2023-05-22T15:23:59.178Z,47.81
2023-05-22T15:26:25.797Z,45.18
2023-05-22T15:28:52.290Z,47.10
2023-05-22T15:31:18.829Z,44.70
2023-05-22T15:33:45.392Z,44.76
2023-05-22T15:36:11.855Z,44.12
2023-05-22T15:38:38.329Z,44.07
2023-05-22T15:41:04.815Z,44.86
2023-05-22T15:43:31.226Z,45.25
2023-05-22T15:45:57.799Z,44.25
2023-05-22T15:48:24.454Z,45.45
2023-05-22T15:50:50.996Z,46.36
2023-05-22T15:53:17.486Z,45.31
2023-05-22T15:55:44.111Z,48.18
2023-05-22T15:58:10.571Z,46.66
2023-05-22T16:00:37.276Z,44.44
2023-05-22T16:03:04.320Z,45.77
2023-05-22T16:05:30.863Z,45.00
2023-05-22T16:07:57.284Z,45.59
2023-05-22T16:10:23.972Z,44.94
2023-05-22T16:12:50.447Z,46.02
2023-05-22T16:15:16.900Z,44.82
2023-05-22T16:17:43.599Z,41.54
2023-05-22T16:20:10.133Z,43.95
2023-05-22T16:22:48.288Z,41.32
2023-05-22T16:25:16.098Z,42.49
2023-05-22T16:27:42.651Z,42.34
2023-05-22T16:30:09.232Z,43.42
2023-05-22T16:32:35.849Z,43.13
2023-05-22T16:35:02.347Z,45.04
2023-05-22T16:37:28.818Z,45.85
2023-05-22T16:39:55.325Z,44.66
2023-05-22T16:42:21.760Z,44.03
2023-05-22T16:44:48.209Z,43.72
2023-05-22T16:47:14.812Z,45.34
2023-05-22T16:49:41.272Z,45.01
2023-05-22T16:52:07.720Z,45.87
2023-05-22T16:54:34.475Z,45.29
2023-05-22T16:57:01.008Z,48.80
2023-05-22T16:59:27.497Z,48.67
2023-05-22T17:01:54.089Z,50.14
2023-05-22T17:04:20.587Z,49.80
2023-05-22T17:06:47.677Z,51.30
2023-05-22T17:09:14.308Z,51.58
2023-05-22T17:11:40.754Z,53.50
2023-05-22T17:14:07.149Z,54.18
2023-05-22T17:16:33.776Z,54.21
2023-05-22T17:19:00.360Z,52.65
2023-05-22T17:21:26.784Z,52.92
2023-05-22T17:23:53.310Z,54.52
2023-05-22T17:26:19.755Z,54.55
2023-05-22T17:28:46.200Z,54.65
2023-05-22T17:31:12.795Z,57.23
2023-05-22T17:33:39.314Z,60.05
2023-05-22T17:36:05.872Z,63.30
2023-05-22T17:38:32.375Z,65.99
2023-05-22T17:40:58.830Z,62.74
2023-05-22T17:43:25.272Z,60.79
2023-05-22T17:45:51.798Z,60.62
2023-05-22T17:48:18.389Z,60.80
2023-05-22T17:50:44.808Z,62.01
2023-05-22T17:53:11.334Z,61.08
2023-05-22T17:55:37.838Z,62.45
2023-05-22T17:58:04.511Z,63.97
2023-05-22T18:00:31.013Z,67.46
2023-05-22T18:02:57.602Z,66.98
2023-05-22T18:05:24.149Z,66.51
2023-05-22T18:07:50.722Z,67.52
2023-05-22T18:10:17.150Z,67.56
2023-05-22T18:12:43.690Z,68.04
2023-05-22T18:15:12.287Z,68.13
2023-05-22T18:17:38.929Z,68.26
2023-05-22T18:20:05.772Z,69.59
2023-05-22T18:22:32.511Z,69.13
2023-05-22T18:24:58.970Z,69.33
2023-05-22T18:27:25.509Z,69.59
2023-05-22T18:29:51.966Z,69.87
2023-05-22T18:32:18.451Z,70.69
2023-05-22T18:34:44.885Z,73.49
2023-05-22T18:37:11.385Z,72.07
2023-05-22T18:39:37.811Z,72.76
2023-05-22T18:42:04.594Z,72.58
2023-05-22T18:44:31.167Z,74.28
2023-05-22T18:46:57.618Z,73.38
2023-05-22T18:49:24.090Z,73.81
2023-05-22T18:51:50.570Z,74.52
2023-05-22T18:54:17.109Z,74.70
2023-05-22T18:56:43.549Z,74.71
2023-05-22T18:59:10.032Z,75.66
2023-05-22T19:01:36.554Z,76.18
2023-05-22T19:04:03.111Z,77.31
2023-05-22T19:06:29.600Z,77.87
2023-05-22T19:08:56.057Z,78.26
2023-05-22T19:11:22.467Z,78.90
2023-05-22T19:13:48.967Z,79.98
2023-05-22T19:16:15.500Z,79.83
2023-05-22T19:18:41.971Z,79.40
2023-05-22T19:21:08.454Z,78.86
2023-05-22T19:23:34.883Z,79.21
2023-05-22T19:26:01.396Z,80.80
2023-05-22T19:28:27.973Z,80.23
2023-05-22T19:30:54.458Z,80.42
2023-05-22T19:33:20.946Z,80.85
2023-05-22T19:35:47.579Z,80.77
2023-05-22T19:38:14.011Z,80.81
2023-05-22T19:40:40.696Z,80.58
2023-05-22T19:43:07.505Z,80.29
2023-05-22T19:45:34.019Z,80.14
2023-05-22T19:48:00.630Z,80.60
2023-05-22T19:50:27.433Z,80.10
2023-05-22T19:52:53.882Z,80.21
2023-05-22T19:55:20.368Z,80.82
2023-05-22T19:57:46.909Z,80.82
2023-05-22T20:00:13.551Z,79.94
2023-05-22T20:02:40.089Z,81.08
2023-05-22T20:05:07.045Z,80.17
2023-05-22T20:07:33.531Z,81.30
2023-05-22T20:09:59.959Z,81.54
2023-05-22T20:12:26.553Z,80.97
2023-05-22T20:14:53.012Z,80.00
2023-05-22T20:17:19.429Z,80.75
2023-05-22T20:19:45.960Z,81.10
2023-05-22T20:22:12.496Z,81.47
2023-05-22T20:24:39.009Z,81.56
2023-05-22T20:27:05.554Z,80.98
2023-05-22T20:29:32.015Z,81.24
2023-05-22T20:31:58.528Z,80.83
2023-05-22T20:34:25.095Z,81.15
2023-05-22T20:36:51.491Z,80.82
2023-05-22T20:39:18.030Z,81.95
2023-05-22T20:41:44.583Z,82.30
2023-05-22T20:44:11.030Z,82.54
2023-05-22T20:46:37.573Z,81.27
2023-05-22T20:49:04.269Z,80.86
2023-05-22T20:51:30.732Z,81.26
2023-05-22T20:53:57.159Z,81.46
2023-05-22T20:56:23.772Z,83.45
2023-05-22T20:58:50.251Z,84.33
2023-05-22T21:01:16.709Z,82.78
2023-05-22T21:03:43.237Z,82.62
2023-05-22T21:06:09.760Z,83.60
2023-05-22T21:08:36.252Z,84.92
2023-05-22T21:11:02.826Z,84.44
2023-05-22T21:13:29.361Z,84.57
2023-05-22T21:15:55.789Z,83.56
2023-05-22T21:18:22.285Z,83.86
2023-05-22T21:20:48.814Z,84.02
2023-05-22T21:23:15.256Z,84.19
2023-05-22T21:25:41.798Z,83.47
2023-05-22T21:28:08.276Z,83.93
2023-05-22T21:30:34.722Z,83.30
2023-05-22T21:33:01.261Z,83.63
2023-05-22T21:35:27.809Z,83.84
2023-05-22T21:37:54.316Z,84.24
2023-05-22T21:40:20.771Z,84.53
2023-05-22T21:42:47.665Z,83.88
2023-05-22T21:45:14.216Z,84.69
2023-05-22T21:47:40.701Z,84.70
2023-05-22T21:50:07.412Z,84.92
2023-05-22T21:52:33.976Z,85.80
2023-05-22T21:55:00.403Z,86.32
2023-05-22T21:57:26.980Z,86.68
2023-05-22T21:59:53.503Z,85.96
2023-05-22T22:02:19.954Z,85.82
2023-05-22T22:04:47.761Z,87.46
2023-05-22T22:07:14.304Z,85.64
2023-05-22T22:09:40.804Z,84.74
2023-05-22T22:12:07.987Z,84.75
2023-05-22T22:14:34.598Z,85.48
2023-05-22T22:17:01.107Z,86.22
2023-05-22T22:19:27.591Z,85.80
2023-05-22T22:21:54.216Z,86.18
2023-05-22T22:24:20.760Z,85.38
2023-05-22T22:26:47.329Z,84.76
2023-05-22T22:29:13.788Z,86.05
2023-05-22T22:31:40.333Z,86.96
2023-05-22T22:34:06.786Z,86.69
2023-05-22T22:36:33.423Z,86.26
2023-05-22T22:38:59.868Z,86.90
2023-05-22T22:41:26.456Z,87.40
2023-05-22T22:43:54.548Z,88.37
2023-05-22T22:46:21.347Z,89.12
2023-05-22T22:48:47.841Z,88.22
2023-05-22T22:51:14.370Z,87.93
2023-05-22T22:53:40.862Z,88.32
2023-05-22T22:56:07.475Z,88.64
2023-05-22T22:58:33.895Z,89.50
2023-05-22T23:01:00.397Z,89.16
2023-05-22T23:03:26.926Z,88.06
2023-05-22T23:05:53.398Z,87.32
2023-05-22T23:08:19.803Z,88.39
2023-05-22T23:10:46.248Z,88.47
2023-05-22T23:13:12.762Z,88.03
2023-05-22T23:15:39.701Z,88.85
2023-05-22T23:18:06.638Z,88.05
2023-05-22T23:20:33.102Z,88.21
2023-05-22T23:22:59.582Z,87.65
2023-05-22T23:25:26.131Z,89.46
2023-05-22T23:27:52.635Z,88.65
2023-05-22T23:30:19.201Z,89.37
2023-05-22T23:32:45.865Z,89.19
2023-05-22T23:35:12.493Z,89.07
2023-05-22T23:37:38.942Z,88.61
2023-05-22T23:40:05.666Z,87.72
2023-05-22T23:42:32.428Z,88.27
2023-05-22T23:44:58.886Z,88.63
2023-05-22T23:47:25.476Z,88.86
2023-05-22T23:49:52.177Z,88.24
2023-05-22T23:52:18.735Z,88.24
2023-05-22T23:54:45.242Z,89.02
2023-05-22T23:57:11.707Z,89.35
2023-05-22T23:59:38.183Z,88.84
